Terminal Aerodrome Forecast
Issued by NWS

Home | Current Version | Previous Version | Text Only | Print | Product List | Glossary On
Versions: 1 2 3 4 5 6 7 8 9 10 11 12 13 14 15 16 17 18 19 20 21 22 23 24 25 26 27 28 29 30 31 32 33 34 35 36 37 38 39 40 41 42 43 44 45
000
FTUS43 KDMX 130709 AAB
TAFMCW
TAF AMD
KMCW 130709Z 1307/1406 VRB03KT 1/4SM FG BKN002
      TEMPO 1307/1310 1SM BR SCT004
     FM131000 VRB02KT 1/4SM FG BKN002
     FM131200 VRB03KT 2SM BR SCT008 BKN035
      TEMPO 1312/1314 5SM BR
     FM131400 31014G18KT P6SM SCT040
     FM132200 33008KT P6SM SCT060=

USA.gov is the U.S. government's official web portal to all federal, state and local government web resources and services.